Terminal Aerodrome Forecast
Issued by NWS La Crosse, WI

Home | Current Version | Previous Version | Text Only | Print | Product List | Glossary On
Versions: 1 2 3 4 5 6 7 8 9 10 11 12 13 14
000
FTUS43 KARX 242330
TAFRST
TAF
KRST 242330Z 2500/2524 16015KT P6SM BKN150
     FM251300 17007KT P6SM BKN090
     FM252000 12008KT 6SM -SHRA OVC030=

USA.gov is the U.S. government's official web portal to all federal, state and local government web resources and services.